createdAt,value
2019-02-04T00:03:21.519Z,19.67
2019-02-04T00:08:26.665Z,13.97
2019-02-04T00:13:31.311Z,13.10
2019-02-04T00:18:36.096Z,22.30
2019-02-04T00:23:41.402Z,13.40
2019-02-04T00:28:46.666Z,15.07
2019-02-04T00:33:51.404Z,16.73
2019-02-04T00:38:56.242Z,10.97
2019-02-04T00:44:02.014Z,19.00
2019-02-04T00:49:06.664Z,14.20
2019-02-04T00:54:11.811Z,19.20
2019-02-04T00:59:16.571Z,19.77
2019-02-04T01:04:21.495Z,23.43
2019-02-04T01:09:26.546Z,46.13
2019-02-04T01:14:31.095Z,36.30
2019-02-04T01:19:35.729Z,26.73
2019-02-04T01:24:40.500Z,28.93
2019-02-04T01:29:45.315Z,34.17
2019-02-04T01:34:49.954Z,28.60
2019-02-04T01:39:54.806Z,21.17
2019-02-04T01:44:59.545Z,26.77
2019-02-04T01:50:06.728Z,22.97
2019-02-04T01:55:13.482Z,29.10
2019-02-04T02:00:29.645Z,28.90
2019-02-04T02:05:34.901Z,27.33
2019-02-04T02:10:39.540Z,18.47
2019-02-04T02:15:44.387Z,22.80
2019-02-04T02:20:49.130Z,27.00
2019-02-04T02:25:53.765Z,14.47
2019-02-04T02:30:58.516Z,13.23
2019-02-04T02:36:03.364Z,59.80
2019-02-04T02:41:08.096Z,14.70
2019-02-04T02:46:12.845Z,18.13
2019-02-04T02:51:17.616Z,22.17
2019-02-04T02:56:22.435Z,18.37
2019-02-04T03:01:28.307Z,17.57
2019-02-04T03:06:33.151Z,21.50
2019-02-04T03:11:37.893Z,39.27
2019-02-04T03:16:42.740Z,16.27
2019-02-04T03:21:47.482Z,21.23
2019-02-04T03:26:52.549Z,19.90
2019-02-04T03:31:57.490Z,14.33
2019-02-04T03:37:02.336Z,25.23
2019-02-04T03:42:07.079Z,17.53
2019-02-04T03:47:11.726Z,16.03
2019-02-04T03:52:16.544Z,54.70
2019-02-04T03:57:21.199Z,35.83
2019-02-04T04:02:25.993Z,20.73
2019-02-04T04:07:30.706Z,17.50
2019-02-04T04:12:35.746Z,21.27
2019-02-04T04:17:40.888Z,27.67
2019-02-04T04:22:45.730Z,21.90
2019-02-04T04:27:50.372Z,15.93
2019-02-04T04:32:56.202Z,16.87
2019-02-04T04:38:00.987Z,21.80
2019-02-04T04:43:05.793Z,22.93
2019-02-04T04:48:10.683Z,56.43
2019-02-04T04:53:15.319Z,22.33
2019-02-04T04:58:21.331Z,29.70
2019-02-04T05:03:26.038Z,21.23
2019-02-04T05:08:30.877Z,22.73
2019-02-04T05:13:35.723Z,37.73
2019-02-04T05:18:40.574Z,25.30
2019-02-04T05:23:46.335Z,23.83
2019-02-04T05:28:51.006Z,19.87
2019-02-04T05:33:56.032Z,29.33
2019-02-04T05:39:00.561Z,22.50
2019-02-04T05:44:06.946Z,28.50
2019-02-04T05:49:11.587Z,34.77
2019-02-04T05:54:16.333Z,92.17
2019-02-04T05:59:21.179Z,41.40
2019-02-04T06:04:25.924Z,42.13
2019-02-04T06:09:30.860Z,31.80
2019-02-04T06:14:35.926Z,36.40
2019-02-04T06:19:40.668Z,28.57
2019-02-04T06:24:45.403Z,24.53
2019-02-04T06:29:50.148Z,27.10
2019-02-04T06:34:54.892Z,24.07
2019-02-04T06:39:59.637Z,40.43
2019-02-04T06:45:06.022Z,51.07
2019-02-04T06:50:13.932Z,51.70
2019-02-04T06:55:21.640Z,49.90
2019-02-04T07:00:26.290Z,47.27
2019-02-04T07:05:31.028Z,62.23
2019-02-04T07:10:35.872Z,50.50
2019-02-04T07:15:40.634Z,41.00
2019-02-04T07:20:45.370Z,52.33
2019-02-04T07:25:50.101Z,49.17
2019-02-04T07:30:55.320Z,63.23
2019-02-04T07:36:00.104Z,41.43
2019-02-04T07:41:04.844Z,38.87
2019-02-04T07:46:09.375Z,43.67
2019-02-04T07:51:14.127Z,64.40
2019-02-04T07:56:20.292Z,37.20
2019-02-04T08:01:25.047Z,37.57
2019-02-04T08:06:29.993Z,44.93
2019-02-04T08:11:34.739Z,82.03
2019-02-04T08:16:39.480Z,49.37
2019-02-04T08:21:45.558Z,37.83
2019-02-04T08:26:51.209Z,35.33
2019-02-04T08:31:55.860Z,31.00
2019-02-04T08:37:00.499Z,37.57
2019-02-04T08:42:05.449Z,63.37
2019-02-04T08:47:22.054Z,59.93
2019-02-04T08:52:16.787Z,71.97
2019-02-04T08:57:21.522Z,27.57
2019-02-04T09:02:26.272Z,14.27
2019-02-04T09:07:31.493Z,19.57
2019-02-04T09:12:36.263Z,18.57
2019-02-04T09:17:41.010Z,17.87
2019-02-04T09:22:46.476Z,26.73
2019-02-04T09:27:51.218Z,21.57
2019-02-04T09:32:56.870Z,22.60
2019-02-04T09:38:01.636Z,31.87
2019-02-04T09:43:07.184Z,26.67
2019-02-04T09:48:15.002Z,26.47
2019-02-04T09:53:19.744Z,17.00
2019-02-04T09:58:24.591Z,18.77
2019-02-04T10:03:29.236Z,18.30
2019-02-04T10:08:34.069Z,18.83
2019-02-04T10:13:38.715Z,42.27
2019-02-04T10:18:43.499Z,20.97
2019-02-04T10:23:48.147Z,16.90
2019-02-04T10:28:52.948Z,42.77
2019-02-04T10:33:57.792Z,43.53
2019-02-04T10:39:03.377Z,17.70
2019-02-04T10:44:09.659Z,21.70
2019-02-04T10:49:14.267Z,19.23
2019-02-04T10:54:18.897Z,16.83
2019-02-04T10:59:23.584Z,15.07
2019-02-04T11:04:28.308Z,15.93
2019-02-04T11:09:33.456Z,20.23
2019-02-04T11:14:38.205Z,21.17
2019-02-04T11:19:43.564Z,17.90
2019-02-04T11:24:48.506Z,14.83
2019-02-04T11:29:54.154Z,15.77
2019-02-04T11:35:00.391Z,15.67
2019-02-04T11:40:08.175Z,19.07
2019-02-04T11:45:13.141Z,14.07
2019-02-04T11:50:18.994Z,15.40
2019-02-04T11:55:23.966Z,20.43
2019-02-04T12:00:33.801Z,19.23
2019-02-04T12:05:38.653Z,20.57
2019-02-04T12:10:46.618Z,18.90
2019-02-04T12:15:52.037Z,24.97
2019-02-04T12:20:56.850Z,30.77
2019-02-04T12:26:01.824Z,62.70
2019-02-04T12:31:06.457Z,30.30
2019-02-04T12:36:11.198Z,33.93
2019-02-04T12:41:16.046Z,34.73
2019-02-04T12:46:20.786Z,41.17
2019-02-04T12:51:33.214Z,30.17
2019-02-04T12:56:31.817Z,34.93
2019-02-04T13:01:36.457Z,35.50
2019-02-04T13:06:41.204Z,28.57
2019-02-04T13:11:46.889Z,34.93
2019-02-04T13:16:51.606Z,29.47
2019-02-04T13:21:56.368Z,33.17
2019-02-04T13:27:01.199Z,29.53
2019-02-04T13:32:07.680Z,28.17
2019-02-04T13:37:12.320Z,34.93
2019-02-04T13:42:17.166Z,24.97
2019-02-04T13:47:22.521Z,61.17
2019-02-04T13:52:27.597Z,50.90
2019-02-04T13:57:32.223Z,32.80
2019-02-04T14:02:36.847Z,30.53
2019-02-04T14:07:41.428Z,28.80
2019-02-04T14:12:46.050Z,28.67
2019-02-04T14:17:50.604Z,26.87
2019-02-04T14:22:55.317Z,23.10
2019-02-04T14:28:03.529Z,35.60
2019-02-04T14:33:06.857Z,26.10
2019-02-04T14:38:11.599Z,19.43
2019-02-04T14:43:19.616Z,34.63
2019-02-04T14:48:33.267Z,30.53
2019-02-04T14:53:49.995Z,28.57
2019-02-04T14:58:57.731Z,28.63
2019-02-04T15:04:08.290Z,24.90
2019-02-04T15:09:24.907Z,39.77
2019-02-04T15:14:38.770Z,28.47
2019-02-04T15:19:49.347Z,29.17
2019-02-04T15:25:17.242Z,30.33
2019-02-04T15:30:24.599Z,32.23
2019-02-04T15:35:39.209Z,31.43
2019-02-04T15:40:47.537Z,30.73
2019-02-04T15:46:10.106Z,61.23
2019-02-04T15:51:24.076Z,40.30
2019-02-04T15:56:29.320Z,93.33
2019-02-04T16:01:35.269Z,49.90
2019-02-04T16:06:40.565Z,47.33
2019-02-04T16:11:47.158Z,44.07
2019-02-04T16:16:58.936Z,64.37
2019-02-04T16:22:05.321Z,94.23
2019-02-04T16:27:10.164Z,107.40
2019-02-04T16:32:14.812Z,66.03
2019-02-04T16:37:19.550Z,59.93
2019-02-04T16:42:24.600Z,50.00
2019-02-04T16:47:29.374Z,54.97
2019-02-04T16:52:34.494Z,49.67
2019-02-04T16:57:40.673Z,50.27
2019-02-04T17:02:45.302Z,44.43
2019-02-04T17:07:51.091Z,57.17
2019-02-04T17:12:59.972Z,41.07
2019-02-04T17:18:06.206Z,58.40
2019-02-04T17:23:21.663Z,65.03
2019-02-04T17:28:17.533Z,58.93
2019-02-04T17:33:22.273Z,55.60
2019-02-04T17:38:27.013Z,61.87
2019-02-04T17:43:32.284Z,105.10
2019-02-04T17:48:37.322Z,54.57
2019-02-04T17:53:41.967Z,52.70
2019-02-04T17:58:46.707Z,59.40
2019-02-04T18:03:51.504Z,50.70
2019-02-04T18:08:56.300Z,57.97
2019-02-04T18:14:01.039Z,54.03
2019-02-04T18:19:05.633Z,94.40
2019-02-04T18:24:10.431Z,69.10
2019-02-04T18:29:15.166Z,49.67
2019-02-04T18:34:20.015Z,42.80
2019-02-04T18:39:24.712Z,34.37
2019-02-04T18:44:29.605Z,61.40
2019-02-04T18:49:34.277Z,57.37
2019-02-04T18:54:39.089Z,36.80
2019-02-04T18:59:43.833Z,30.07
2019-02-04T19:04:48.597Z,39.27
2019-02-04T19:09:53.728Z,68.73
2019-02-04T19:14:58.467Z,69.40
2019-02-04T19:20:03.211Z,65.10
2019-02-04T19:25:10.904Z,46.37
2019-02-04T19:30:33.906Z,53.73
2019-02-04T19:35:38.948Z,37.63
2019-02-04T19:40:43.593Z,78.80
2019-02-04T19:45:48.749Z,60.53
2019-02-04T19:50:53.384Z,40.00
2019-02-04T19:55:57.965Z,34.53
2019-02-04T20:01:02.999Z,43.97
2019-02-04T20:06:07.725Z,59.30
2019-02-04T20:11:13.276Z,67.87
2019-02-04T20:16:18.137Z,63.63
2019-02-04T20:21:22.769Z,68.47
2019-02-04T20:26:28.530Z,65.37
2019-02-04T20:31:33.943Z,70.13
2019-02-04T20:36:40.989Z,61.13
2019-02-04T20:41:46.443Z,68.07
2019-02-04T20:46:51.601Z,62.10
2019-02-04T20:51:57.683Z,54.70
2019-02-04T20:57:02.557Z,41.07
2019-02-04T21:02:07.242Z,37.33
2019-02-04T21:07:12.109Z,35.70
2019-02-04T21:12:16.744Z,36.97
2019-02-04T21:17:21.487Z,34.87
2019-02-04T21:22:27.157Z,50.93
2019-02-04T21:27:33.784Z,48.40
2019-02-04T21:32:38.716Z,44.40
2019-02-04T21:37:43.639Z,36.03
2019-02-04T21:42:48.583Z,38.60
2019-02-04T21:47:53.327Z,42.13
2019-02-04T21:52:59.199Z,48.53
2019-02-04T21:58:04.250Z,42.20
2019-02-04T22:03:08.995Z,51.33
2019-02-04T22:08:13.623Z,35.57
2019-02-04T22:13:19.706Z,49.30
2019-02-04T22:18:24.860Z,53.13
2019-02-04T22:23:29.900Z,55.70
2019-02-04T22:28:34.863Z,52.23
2019-02-04T22:33:39.602Z,60.53
2019-02-04T22:38:44.341Z,66.23
2019-02-04T22:43:49.087Z,90.60
2019-02-04T22:48:53.829Z,118.07
2019-02-04T22:53:58.571Z,104.33
2019-02-04T22:59:03.492Z,57.70
2019-02-04T23:04:08.160Z,40.10
2019-02-04T23:09:13.432Z,43.97
2019-02-04T23:14:18.772Z,47.93
2019-02-04T23:19:26.581Z,38.83
2019-02-04T23:24:31.741Z,42.70
2019-02-04T23:29:36.286Z,30.20
2019-02-04T23:34:41.030Z,34.37
2019-02-04T23:39:45.768Z,36.13
2019-02-04T23:44:50.818Z,33.60
2019-02-04T23:49:55.661Z,45.47
2019-02-04T23:55:01.432Z,42.63
